createdAt,value
2022-08-28T05:01:30.879Z,20.20
2022-08-28T05:04:02.886Z,18.70
2022-08-28T05:06:37.116Z,16.20
2022-08-28T05:09:06.156Z,17.60
2022-08-28T05:11:36.142Z,18.80
2022-08-28T05:14:12.722Z,21.20
2022-08-28T05:16:53.282Z,21.90
2022-08-28T05:19:24.455Z,18.30
2022-08-28T05:21:55.040Z,19.10
2022-08-28T05:24:24.431Z,19.00
2022-08-28T05:26:53.935Z,18.20
2022-08-28T05:29:25.182Z,19.20
2022-08-28T05:31:54.501Z,19.00
2022-08-28T05:34:23.715Z,19.60
2022-08-28T05:36:54.810Z,18.40
2022-08-28T05:39:23.910Z,19.30
2022-08-28T05:41:53.138Z,20.10
2022-08-28T05:44:28.359Z,18.10
2022-08-28T05:46:57.623Z,19.30
2022-08-28T05:49:28.803Z,19.60
2022-08-28T06:08:58.269Z,19.30
2022-08-28T06:11:30.607Z,18.20
2022-08-28T06:14:03.091Z,16.20
2022-08-28T06:16:32.589Z,17.40
2022-08-28T06:19:05.515Z,17.50
2022-08-28T06:21:35.275Z,18.50
2022-08-28T06:24:29.059Z,19.90
2022-08-28T06:26:59.326Z,18.70
2022-08-28T06:29:29.374Z,19.60
2022-08-28T06:32:04.413Z,17.50
2022-08-28T06:34:34.267Z,18.20
2022-08-28T06:37:04.571Z,15.30
2022-08-28T06:39:32.129Z,17.70
2022-08-28T06:41:59.988Z,17.90
2022-08-28T06:44:32.332Z,15.40
2022-08-28T06:47:03.216Z,15.70
2022-08-28T06:49:30.986Z,16.10
2022-08-28T06:52:02.834Z,14.80
2022-08-28T06:54:31.728Z,16.90
2022-08-28T07:00:25.312Z,16.00
2022-08-28T07:02:53.243Z,15.70
2022-08-28T07:05:21.255Z,20.10
2022-08-28T07:07:50.034Z,18.00
2022-08-28T07:10:19.034Z,17.10
2022-08-28T07:12:51.210Z,18.20
2022-08-28T07:15:19.964Z,16.70
2022-08-28T07:17:47.550Z,18.90
2022-08-28T07:20:17.063Z,16.30
2022-08-28T07:22:57.345Z,16.20
2022-08-28T07:25:29.295Z,16.00
2022-08-28T07:27:58.276Z,13.80
2022-08-28T07:30:25.847Z,12.30
2022-08-28T07:32:53.916Z,11.10
2022-08-28T07:35:23.931Z,11.80
2022-08-28T07:37:52.710Z,11.80
2022-08-28T07:40:22.065Z,10.80
2022-08-28T07:43:08.922Z,11.80
2022-08-28T07:45:37.851Z,10.30
2022-08-28T07:48:37.333Z,12.00
2022-08-28T07:51:09.279Z,9.50
2022-08-28T07:56:52.759Z,9.10
2022-08-28T07:59:21.928Z,9.20
2022-08-28T08:01:52.193Z,8.10
2022-08-28T08:04:23.079Z,10.90
2022-08-28T08:06:57.858Z,11.90
2022-08-28T08:09:27.158Z,7.10
2022-08-28T08:11:57.246Z,8.40
2022-08-28T08:14:49.745Z,8.00
2022-08-28T08:17:20.648Z,9.00
2022-08-28T08:19:50.759Z,7.00
2022-08-28T08:22:18.729Z,10.70
2022-08-28T08:24:46.496Z,11.00
2022-08-28T08:27:16.509Z,9.20
2022-08-28T08:29:51.146Z,9.90
2022-08-28T08:32:18.889Z,8.80
2022-08-28T08:34:46.774Z,9.00
2022-08-28T08:37:14.529Z,8.60
2022-08-28T08:39:43.648Z,7.40
2022-08-28T08:42:34.435Z,6.90
2022-08-28T08:45:05.138Z,8.20
2022-08-28T08:47:41.646Z,7.60
2022-08-28T08:50:35.475Z,10.70
2022-08-28T08:53:42.610Z,9.20
2022-08-28T08:56:16.658Z,9.30
2022-08-28T08:58:53.547Z,7.30
2022-08-28T09:01:47.425Z,8.20
2022-08-28T09:04:41.038Z,7.70
2022-08-28T09:07:21.379Z,7.60
2022-08-28T09:09:57.655Z,8.40
2022-08-28T09:12:34.852Z,8.00
2022-08-28T09:15:40.664Z,8.90
2022-08-28T09:18:25.790Z,7.60
2022-08-28T09:20:59.141Z,8.10
2022-08-28T09:23:29.857Z,8.20
2022-08-28T09:26:12.558Z,8.20
2022-08-28T09:28:44.457Z,8.20
2022-08-28T09:31:33.402Z,8.80
2022-08-28T09:34:26.011Z,9.20
2022-08-28T09:36:59.395Z,9.20
2022-08-28T09:39:33.143Z,6.60
2022-08-28T09:42:41.892Z,7.10
2022-08-28T09:45:24.049Z,6.80
2022-08-28T09:47:59.663Z,7.00
2022-08-28T09:50:44.200Z,6.40
2022-08-28T09:53:21.820Z,6.90
2022-08-28T09:56:10.687Z,6.10
2022-08-28T09:58:54.943Z,7.20
2022-08-28T10:01:45.137Z,6.60
2022-08-28T10:04:22.973Z,6.70
2022-08-28T10:07:19.678Z,7.70
2022-08-28T10:10:07.593Z,8.10
2022-08-28T10:13:21.773Z,9.10
2022-08-28T10:16:26.028Z,8.60
2022-08-28T10:19:09.617Z,8.40
2022-08-28T10:22:01.052Z,8.20
2022-08-28T10:25:19.401Z,8.10
2022-08-28T10:28:31.175Z,7.00
2022-08-28T10:31:47.480Z,7.50
2022-08-28T10:34:33.293Z,7.90
2022-08-28T10:37:57.980Z,7.50
2022-08-28T10:40:39.280Z,6.70
2022-08-28T10:43:33.764Z,6.50
2022-08-28T10:46:10.463Z,6.90
2022-08-28T10:49:21.609Z,7.20
2022-08-28T10:52:23.056Z,8.10
2022-08-28T10:55:16.941Z,6.50
2022-08-28T10:57:56.187Z,5.40
2022-08-28T11:00:28.369Z,5.40
2022-08-28T11:03:33.588Z,8.10
2022-08-28T11:06:31.066Z,6.00
2022-08-28T11:09:24.713Z,5.10
2022-08-28T11:12:02.406Z,4.90
2022-08-28T11:14:47.723Z,6.30
2022-08-28T11:17:27.766Z,6.20
2022-08-28T11:20:25.305Z,6.40
2022-08-28T11:23:30.119Z,6.70
2022-08-28T11:26:07.344Z,6.30
2022-08-28T11:28:34.892Z,6.20
2022-08-28T11:31:07.524Z,7.40
2022-08-28T11:33:52.365Z,6.70
2022-08-28T11:36:25.427Z,8.10
2022-08-28T11:38:57.615Z,6.80
2022-08-28T11:41:33.652Z,7.50
2022-08-28T11:44:13.922Z,8.50
2022-08-28T11:46:56.828Z,10.80
2022-08-28T11:49:33.705Z,10.10
2022-08-28T11:52:17.148Z,13.80
2022-08-28T11:55:29.800Z,11.20
2022-08-28T11:58:31.636Z,10.70
2022-08-28T12:01:12.747Z,10.80
2022-08-28T12:03:58.313Z,9.20
2022-08-28T12:07:09.986Z,9.40
2022-08-28T12:09:47.379Z,9.80
2022-08-28T12:12:23.035Z,9.70
2022-08-28T12:15:39.152Z,8.30
2022-08-28T12:18:11.398Z,9.40
2022-08-28T12:21:00.043Z,6.50
2022-08-28T12:24:09.906Z,6.30
2022-08-28T12:26:47.572Z,5.90
2022-08-28T12:29:50.076Z,6.10
2022-08-28T12:32:53.889Z,5.30
2022-08-28T12:35:26.502Z,5.40
2022-08-28T12:37:54.234Z,5.20
2022-08-28T12:40:52.845Z,5.40
2022-08-28T12:43:31.633Z,7.40
2022-08-28T12:46:20.320Z,6.10
2022-08-28T12:49:27.167Z,4.50
2022-08-28T12:52:16.916Z,5.10
2022-08-28T12:54:48.136Z,6.40
2022-08-28T12:57:23.657Z,4.90
2022-08-28T13:00:08.146Z,5.60
2022-08-28T13:02:36.397Z,5.00
2022-08-28T13:05:20.831Z,4.00
2022-08-28T13:07:55.013Z,3.40
2022-08-28T13:10:51.076Z,3.30
2022-08-28T13:13:31.336Z,2.90
2022-08-28T13:16:38.557Z,4.90
2022-08-28T13:19:06.902Z,3.60
2022-08-28T13:22:35.090Z,2.90
2022-08-28T13:25:08.231Z,2.90
2022-08-28T13:27:38.479Z,3.70
2022-08-28T13:30:20.348Z,4.60
2022-08-28T13:33:04.587Z,4.40
2022-08-28T13:35:40.139Z,2.50
2022-08-28T13:38:12.565Z,3.90
2022-08-28T13:40:59.788Z,2.70
2022-08-28T13:43:42.393Z,3.70
2022-08-28T13:46:10.350Z,3.30
2022-08-28T13:48:38.315Z,3.50
2022-08-28T13:51:14.265Z,4.50
2022-08-28T13:53:50.772Z,3.40
2022-08-28T13:56:21.918Z,3.30
2022-08-28T13:58:57.645Z,4.90
2022-08-28T14:01:46.994Z,3.10
2022-08-28T14:04:14.801Z,5.30
2022-08-28T14:06:48.314Z,3.10
2022-08-28T14:09:17.801Z,3.50
2022-08-28T14:11:49.341Z,3.30
2022-08-28T14:14:18.250Z,4.20
2022-08-28T14:16:47.200Z,4.40
2022-08-28T14:19:15.316Z,3.60
2022-08-28T14:21:45.692Z,3.70
2022-08-28T14:24:14.545Z,2.80
2022-08-28T14:26:43.321Z,4.20
2022-08-28T14:29:14.256Z,3.30
2022-08-28T14:31:46.877Z,3.20
2022-08-28T14:34:22.074Z,4.10
2022-08-28T14:36:50.750Z,3.10
2022-08-28T14:39:18.635Z,5.10
2022-08-28T14:41:54.098Z,3.20
2022-08-28T14:44:24.125Z,3.10
2022-08-28T14:46:59.644Z,3.70
2022-08-28T14:49:55.634Z,4.80
2022-08-28T14:52:23.444Z,4.00
2022-08-28T14:54:51.867Z,4.20
2022-08-28T14:57:19.486Z,4.30
2022-08-28T14:59:49.286Z,4.70
2022-08-28T15:02:16.958Z,5.10
2022-08-28T15:04:48.000Z,4.90
2022-08-28T15:07:22.837Z,5.40
2022-08-28T15:09:52.556Z,4.10
2022-08-28T15:12:21.535Z,4.80
2022-08-28T15:14:54.630Z,6.00
2022-08-28T15:17:34.158Z,6.90
2022-08-28T15:20:06.592Z,3.90
2022-08-28T15:22:38.697Z,4.80
2022-08-28T15:25:08.624Z,5.40
2022-08-28T15:27:42.007Z,4.60
2022-08-28T15:30:11.718Z,4.60
2022-08-28T15:32:42.879Z,4.40
2022-08-28T15:35:16.379Z,4.90
2022-08-28T15:37:46.287Z,4.60
2022-08-28T15:40:33.392Z,4.90
2022-08-28T15:43:01.384Z,6.30
2022-08-28T15:45:31.134Z,7.30
2022-08-28T15:48:00.911Z,5.10
2022-08-28T15:50:28.658Z,5.70
2022-08-28T15:52:56.938Z,4.40
2022-08-28T16:01:49.041Z,5.40
2022-08-28T16:04:17.778Z,5.10
2022-08-28T16:06:46.087Z,5.40
2022-08-28T16:09:14.360Z,6.90
2022-08-28T16:11:43.713Z,4.70
2022-08-28T16:14:16.809Z,6.00
2022-08-28T16:16:49.220Z,4.70
2022-08-28T16:19:18.938Z,5.30
2022-08-28T16:21:46.698Z,6.20
2022-08-28T16:24:14.870Z,6.80
2022-08-28T16:26:42.523Z,7.70
2022-08-28T16:29:10.611Z,5.50
2022-08-28T16:31:38.403Z,6.20
2022-08-28T16:34:10.735Z,10.70
2022-08-28T16:36:40.049Z,7.80
2022-08-28T16:39:11.565Z,6.30
2022-08-28T16:41:45.966Z,5.90
2022-08-28T16:44:14.810Z,6.60
2022-08-28T16:46:42.620Z,6.20
2022-08-28T16:49:11.220Z,8.60
2022-08-28T16:51:44.054Z,8.40
2022-08-28T16:54:36.786Z,8.90
2022-08-28T16:57:13.061Z,11.90
2022-08-28T16:59:41.462Z,10.60
2022-08-28T17:02:13.796Z,12.70
2022-08-28T17:04:45.277Z,13.20
2022-08-28T17:07:16.205Z,13.60
2022-08-28T17:09:47.651Z,14.90
2022-08-28T17:12:16.559Z,13.40
2022-08-28T17:14:45.954Z,13.30
2022-08-28T17:17:14.905Z,16.00
2022-08-28T17:19:47.107Z,13.50
2022-08-28T17:22:33.426Z,16.40
2022-08-28T17:25:13.570Z,14.00
2022-08-28T17:27:45.017Z,12.30
2022-08-28T17:30:15.688Z,13.40
2022-08-28T17:32:45.073Z,15.20
2022-08-28T17:35:15.270Z,16.00
2022-08-28T17:37:44.227Z,12.90
2022-08-28T17:40:17.617Z,14.80
2022-08-28T17:42:48.641Z,15.40
2022-08-28T17:45:21.396Z,13.60
2022-08-28T17:47:49.553Z,13.50
2022-08-28T17:50:23.174Z,14.30
2022-08-28T17:52:55.740Z,16.20
2022-08-28T17:55:25.972Z,15.50
2022-08-28T17:57:53.950Z,14.00
2022-08-28T18:00:22.762Z,15.70
2022-08-28T18:02:55.006Z,15.20
2022-08-28T18:05:27.465Z,16.00
2022-08-28T18:08:05.777Z,15.20
2022-08-28T18:10:35.548Z,12.70
2022-08-28T18:13:06.410Z,12.50
2022-08-28T18:16:00.392Z,17.10
2022-08-28T18:18:36.305Z,16.30
2022-08-28T18:21:11.041Z,14.30
2022-08-28T18:23:42.314Z,14.00
2022-08-28T18:26:10.095Z,15.60
2022-08-28T18:28:39.298Z,14.40
2022-08-28T18:31:09.713Z,13.30
2022-08-28T18:33:50.503Z,15.10
2022-08-28T18:36:19.899Z,17.80
2022-08-28T18:38:51.259Z,15.70
2022-08-28T18:41:20.216Z,15.10
2022-08-28T18:43:55.909Z,17.20
2022-08-28T18:46:28.659Z,12.80
2022-08-28T18:49:02.185Z,15.10
2022-08-28T18:51:32.536Z,15.00
2022-08-28T18:54:01.625Z,14.60
2022-08-28T18:56:32.258Z,12.90
2022-08-28T18:59:02.864Z,16.10
2022-08-28T19:01:31.808Z,13.40
2022-08-28T19:04:00.741Z,16.00
2022-08-28T19:06:35.164Z,13.80
2022-08-28T19:09:05.353Z,16.00
2022-08-28T19:11:35.680Z,16.40
2022-08-28T19:14:07.465Z,17.20
2022-08-28T19:16:36.371Z,20.00
2022-08-28T19:19:05.158Z,14.70
2022-08-28T19:21:34.144Z,18.80
2022-08-28T19:24:04.550Z,13.00
2022-08-28T19:26:37.296Z,13.70
2022-08-28T19:29:11.800Z,15.90
2022-08-28T19:32:06.248Z,14.70
2022-08-28T19:34:36.016Z,15.30
2022-08-28T19:37:06.160Z,15.40
2022-08-28T19:39:35.028Z,15.20
2022-08-28T19:42:06.686Z,16.80
2022-08-28T19:45:00.284Z,14.40
2022-08-28T19:47:53.509Z,11.80
2022-08-28T19:50:21.245Z,15.60
2022-08-28T19:53:17.326Z,12.70
2022-08-28T19:55:46.883Z,15.50
2022-08-28T19:58:14.628Z,13.90
2022-08-28T20:00:43.883Z,15.20
2022-08-28T20:03:12.943Z,13.10
2022-08-28T20:05:48.694Z,16.80
2022-08-28T20:08:19.740Z,12.30
2022-08-28T20:10:49.769Z,12.40
2022-08-28T20:13:17.926Z,12.30
2022-08-28T20:15:53.783Z,17.20
2022-08-28T20:18:23.452Z,10.00
2022-08-28T20:20:56.481Z,13.70
2022-08-28T20:23:25.370Z,12.00
2022-08-28T20:25:54.786Z,12.50
2022-08-28T20:28:22.530Z,11.80
2022-08-28T20:30:50.790Z,13.80
2022-08-28T20:33:18.693Z,12.10
2022-08-28T20:35:46.552Z,14.40
2022-08-28T20:44:38.315Z,13.70
2022-08-28T20:47:08.574Z,10.70
2022-08-28T20:49:42.086Z,12.20
2022-08-28T20:52:34.343Z,12.50
2022-08-28T20:55:02.251Z,11.90
2022-08-28T20:57:30.021Z,12.00
2022-08-28T21:00:05.655Z,10.40
2022-08-28T21:02:33.951Z,12.70
2022-08-28T21:05:02.319Z,13.40
2022-08-28T21:07:31.011Z,11.50
2022-08-28T21:10:07.041Z,9.70
2022-08-28T21:12:38.414Z,12.20
2022-08-28T21:15:12.419Z,13.30
2022-08-28T21:17:41.132Z,15.00
2022-08-28T21:20:16.252Z,11.00
2022-08-28T21:22:44.937Z,10.10
2022-08-28T21:25:13.279Z,12.50
2022-08-28T21:27:44.431Z,12.70
2022-08-28T21:30:19.432Z,14.90
2022-08-28T21:32:53.038Z,13.10
2022-08-28T21:35:23.598Z,10.80
2022-08-28T21:37:55.373Z,12.10
2022-08-28T21:40:25.883Z,12.00
2022-08-28T21:42:56.769Z,14.00
2022-08-28T21:46:04.902Z,10.80
2022-08-28T21:48:39.723Z,11.90
2022-08-28T21:51:15.222Z,11.00
2022-08-28T21:53:48.427Z,12.20
2022-08-28T21:56:25.432Z,9.20
2022-08-28T21:58:56.985Z,12.80
